sensor_id;sensor_type;location;lat;lon;timestamp;P1;durP1;ratioP1;P2;durP2;ratioP2
12958;SDS011;6544;51.666;6.634;2023-06-22T00:02:00;15.55;;;10.48;;
12958;SDS011;6544;51.666;6.634;2023-06-22T00:04:27;12.68;;;10.70;;
12958;SDS011;6544;51.666;6.634;2023-06-22T00:06:54;16.63;;;10.85;;
12958;SDS011;6544;51.666;6.634;2023-06-22T00:09:22;14.40;;;11.50;;
12958;SDS011;6544;51.666;6.634;2023-06-22T00:11:49;19.92;;;12.38;;
12958;SDS011;6544;51.666;6.634;2023-06-22T00:14:16;12.75;;;11.35;;
12958;SDS011;6544;51.666;6.634;2023-06-22T00:16:43;14.50;;;10.55;;
12958;SDS011;6544;51.666;6.634;2023-06-22T00:19:13;14.32;;;10.75;;
12958;SDS011;6544;51.666;6.634;2023-06-22T00:21:40;12.68;;;11.07;;
12958;SDS011;6544;51.666;6.634;2023-06-22T00:24:08;13.75;;;10.40;;
12958;SDS011;6544;51.666;6.634;2023-06-22T00:26:36;11.65;;;10.20;;
12958;SDS011;6544;51.666;6.634;2023-06-22T00:29:03;11.65;;;10.15;;
12958;SDS011;6544;51.666;6.634;2023-06-22T00:31:30;13.05;;;10.50;;
12958;SDS011;6544;51.666;6.634;2023-06-22T00:33:57;13.85;;;10.73;;
12958;SDS011;6544;51.666;6.634;2023-06-22T00:36:23;12.95;;;10.32;;
12958;SDS011;6544;51.666;6.634;2023-06-22T00:38:50;12.45;;;10.55;;
12958;SDS011;6544;51.666;6.634;2023-06-22T00:41:17;14.95;;;11.40;;
12958;SDS011;6544;51.666;6.634;2023-06-22T00:43:45;13.82;;;11.45;;
12958;SDS011;6544;51.666;6.634;2023-06-22T00:46:12;12.65;;;10.90;;
12958;SDS011;6544;51.666;6.634;2023-06-22T00:48:39;13.02;;;11.52;;
12958;SDS011;6544;51.666;6.634;2023-06-22T00:51:09;16.98;;;11.05;;
12958;SDS011;6544;51.666;6.634;2023-06-22T00:53:36;14.52;;;11.60;;
12958;SDS011;6544;51.666;6.634;2023-06-22T00:56:03;12.07;;;10.75;;
12958;SDS011;6544;51.666;6.634;2023-06-22T00:58:31;13.00;;;11.60;;
12958;SDS011;6544;51.666;6.634;2023-06-22T01:00:59;15.10;;;11.85;;
12958;SDS011;6544;51.666;6.634;2023-06-22T01:03:27;13.18;;;11.70;;
12958;SDS011;6544;51.666;6.634;2023-06-22T01:05:55;13.10;;;11.73;;
12958;SDS011;6544;51.666;6.634;2023-06-22T01:08:29;14.15;;;11.88;;
12958;SDS011;6544;51.666;6.634;2023-06-22T01:11:08;15.73;;;12.55;;
12958;SDS011;6544;51.666;6.634;2023-06-22T01:13:40;13.60;;;12.13;;
12958;SDS011;6544;51.666;6.634;2023-06-22T01:16:13;13.98;;;11.38;;
12958;SDS011;6544;51.666;6.634;2023-06-22T01:18:43;13.50;;;11.98;;
12958;SDS011;6544;51.666;6.634;2023-06-22T01:21:14;11.88;;;10.68;;
12958;SDS011;6544;51.666;6.634;2023-06-22T01:23:50;15.00;;;11.20;;
12958;SDS011;6544;51.666;6.634;2023-06-22T01:26:25;12.80;;;11.45;;
12958;SDS011;6544;51.666;6.634;2023-06-22T01:29:02;13.93;;;12.25;;
12958;SDS011;6544;51.666;6.634;2023-06-22T01:31:31;14.88;;;12.85;;
12958;SDS011;6544;51.666;6.634;2023-06-22T01:34:01;14.52;;;11.80;;
12958;SDS011;6544;51.666;6.634;2023-06-22T01:36:29;15.18;;;12.75;;
12958;SDS011;6544;51.666;6.634;2023-06-22T01:38:57;16.13;;;12.52;;
12958;SDS011;6544;51.666;6.634;2023-06-22T01:41:26;13.43;;;11.43;;
12958;SDS011;6544;51.666;6.634;2023-06-22T01:43:55;13.15;;;11.73;;
12958;SDS011;6544;51.666;6.634;2023-06-22T01:46:24;13.07;;;11.27;;
12958;SDS011;6544;51.666;6.634;2023-06-22T01:48:51;13.05;;;11.40;;
12958;SDS011;6544;51.666;6.634;2023-06-22T01:51:19;13.70;;;11.40;;
12958;SDS011;6544;51.666;6.634;2023-06-22T01:53:46;15.43;;;11.95;;
12958;SDS011;6544;51.666;6.634;2023-06-22T01:56:13;16.92;;;12.52;;
12958;SDS011;6544;51.666;6.634;2023-06-22T01:58:45;14.07;;;12.10;;
12958;SDS011;6544;51.666;6.634;2023-06-22T02:01:17;13.50;;;12.10;;
12958;SDS011;6544;51.666;6.634;2023-06-22T02:03:52;13.57;;;11.65;;
12958;SDS011;6544;51.666;6.634;2023-06-22T02:06:29;16.33;;;12.80;;
12958;SDS011;6544;51.666;6.634;2023-06-22T02:09:02;14.18;;;11.05;;
12958;SDS011;6544;51.666;6.634;2023-06-22T02:11:35;14.00;;;10.68;;
12958;SDS011;6544;51.666;6.634;2023-06-22T02:14:04;13.55;;;11.27;;
12958;SDS011;6544;51.666;6.634;2023-06-22T02:16:33;12.60;;;11.25;;
12958;SDS011;6544;51.666;6.634;2023-06-22T02:19:06;13.40;;;11.70;;
12958;SDS011;6544;51.666;6.634;2023-06-22T02:21:33;13.90;;;12.43;;
12958;SDS011;6544;51.666;6.634;2023-06-22T02:24:00;14.30;;;12.80;;
12958;SDS011;6544;51.666;6.634;2023-06-22T02:26:27;14.50;;;13.00;;
12958;SDS011;6544;51.666;6.634;2023-06-22T02:28:54;14.48;;;12.98;;
12958;SDS011;6544;51.666;6.634;2023-06-22T02:31:21;15.30;;;12.75;;
12958;SDS011;6544;51.666;6.634;2023-06-22T02:33:55;16.65;;;13.60;;
12958;SDS011;6544;51.666;6.634;2023-06-22T02:36:25;15.63;;;13.95;;
12958;SDS011;6544;51.666;6.634;2023-06-22T02:38:52;15.65;;;13.43;;
12958;SDS011;6544;51.666;6.634;2023-06-22T02:41:21;15.77;;;13.23;;
12958;SDS011;6544;51.666;6.634;2023-06-22T02:43:48;15.95;;;14.35;;
12958;SDS011;6544;51.666;6.634;2023-06-22T02:46:15;17.75;;;12.77;;
12958;SDS011;6544;51.666;6.634;2023-06-22T02:48:42;15.85;;;14.18;;
12958;SDS011;6544;51.666;6.634;2023-06-22T02:51:09;16.63;;;13.65;;
12958;SDS011;6544;51.666;6.634;2023-06-22T02:53:37;15.50;;;12.90;;
12958;SDS011;6544;51.666;6.634;2023-06-22T02:56:04;16.17;;;14.27;;
12958;SDS011;6544;51.666;6.634;2023-06-22T02:58:31;16.92;;;15.23;;
12958;SDS011;6544;51.666;6.634;2023-06-22T03:01:03;14.77;;;13.20;;
12958;SDS011;6544;51.666;6.634;2023-06-22T03:03:30;16.08;;;14.38;;
12958;SDS011;6544;51.666;6.634;2023-06-22T03:05:57;16.50;;;14.43;;
12958;SDS011;6544;51.666;6.634;2023-06-22T03:08:26;14.95;;;13.45;;
12958;SDS011;6544;51.666;6.634;2023-06-22T03:10:55;16.63;;;14.93;;
12958;SDS011;6544;51.666;6.634;2023-06-22T03:13:21;17.20;;;15.27;;
12958;SDS011;6544;51.666;6.634;2023-06-22T03:15:49;14.75;;;13.25;;
12958;SDS011;6544;51.666;6.634;2023-06-22T03:18:15;20.52;;;15.30;;
12958;SDS011;6544;51.666;6.634;2023-06-22T03:20:42;17.63;;;15.60;;
12958;SDS011;6544;51.666;6.634;2023-06-22T03:23:09;16.70;;;14.73;;
12958;SDS011;6544;51.666;6.634;2023-06-22T03:25:36;19.23;;;14.75;;
12958;SDS011;6544;51.666;6.634;2023-06-22T03:28:04;19.13;;;15.75;;
12958;SDS011;6544;51.666;6.634;2023-06-22T03:30:31;17.33;;;15.48;;
12958;SDS011;6544;51.666;6.634;2023-06-22T03:32:58;19.60;;;15.65;;
12958;SDS011;6544;51.666;6.634;2023-06-22T03:35:25;19.50;;;15.90;;
12958;SDS011;6544;51.666;6.634;2023-06-22T03:37:52;18.00;;;16.10;;
12958;SDS011;6544;51.666;6.634;2023-06-22T03:40:19;20.30;;;16.63;;
12958;SDS011;6544;51.666;6.634;2023-06-22T03:42:46;17.40;;;15.50;;
12958;SDS011;6544;51.666;6.634;2023-06-22T03:45:14;17.17;;;15.38;;
12958;SDS011;6544;51.666;6.634;2023-06-22T03:47:41;15.50;;;13.90;;
12958;SDS011;6544;51.666;6.634;2023-06-22T03:50:08;18.30;;;16.30;;
12958;SDS011;6544;51.666;6.634;2023-06-22T03:52:35;17.55;;;15.68;;
12958;SDS011;6544;51.666;6.634;2023-06-22T03:55:02;18.10;;;15.70;;
12958;SDS011;6544;51.666;6.634;2023-06-22T03:57:30;16.42;;;14.73;;
12958;SDS011;6544;51.666;6.634;2023-06-22T03:59:57;16.95;;;15.25;;
12958;SDS011;6544;51.666;6.634;2023-06-22T04:02:25;17.73;;;15.93;;
12958;SDS011;6544;51.666;6.634;2023-06-22T04:04:52;19.02;;;16.50;;
12958;SDS011;6544;51.666;6.634;2023-06-22T04:07:19;16.77;;;14.73;;
12958;SDS011;6544;51.666;6.634;2023-06-22T04:09:46;17.45;;;15.65;;
12958;SDS011;6544;51.666;6.634;2023-06-22T04:12:13;16.48;;;14.77;;
12958;SDS011;6544;51.666;6.634;2023-06-22T04:14:40;17.38;;;15.57;;
12958;SDS011;6544;51.666;6.634;2023-06-22T04:17:06;17.55;;;15.32;;
12958;SDS011;6544;51.666;6.634;2023-06-22T04:19:35;17.50;;;15.80;;
12958;SDS011;6544;51.666;6.634;2023-06-22T04:22:01;17.25;;;15.45;;
12958;SDS011;6544;51.666;6.634;2023-06-22T04:24:29;20.60;;;16.38;;
12958;SDS011;6544;51.666;6.634;2023-06-22T04:26:55;19.98;;;17.20;;
12958;SDS011;6544;51.666;6.634;2023-06-22T04:29:22;18.45;;;16.55;;
12958;SDS011;6544;51.666;6.634;2023-06-22T04:31:53;18.65;;;16.75;;
12958;SDS011;6544;51.666;6.634;2023-06-22T04:34:22;19.77;;;17.67;;
12958;SDS011;6544;51.666;6.634;2023-06-22T04:36:52;19.33;;;16.25;;
12958;SDS011;6544;51.666;6.634;2023-06-22T04:39:19;23.23;;;18.02;;
12958;SDS011;6544;51.666;6.634;2023-06-22T04:41:47;19.23;;;16.55;;
12958;SDS011;6544;51.666;6.634;2023-06-22T04:44:14;19.33;;;17.17;;
12958;SDS011;6544;51.666;6.634;2023-06-22T04:46:48;19.67;;;17.45;;
12958;SDS011;6544;51.666;6.634;2023-06-22T04:49:19;22.33;;;17.55;;
12958;SDS011;6544;51.666;6.634;2023-06-22T04:51:47;18.70;;;16.70;;
12958;SDS011;6544;51.666;6.634;2023-06-22T04:54:18;21.80;;;18.05;;
12958;SDS011;6544;51.666;6.634;2023-06-22T04:56:45;22.77;;;16.88;;
12958;SDS011;6544;51.666;6.634;2023-06-22T04:59:12;20.85;;;17.60;;
12958;SDS011;6544;51.666;6.634;2023-06-22T05:01:39;19.83;;;16.83;;
12958;SDS011;6544;51.666;6.634;2023-06-22T05:04:06;20.10;;;16.75;;
12958;SDS011;6544;51.666;6.634;2023-06-22T05:06:32;18.63;;;16.73;;
12958;SDS011;6544;51.666;6.634;2023-06-22T05:08:59;20.08;;;17.50;;
12958;SDS011;6544;51.666;6.634;2023-06-22T05:11:29;19.75;;;17.10;;
12958;SDS011;6544;51.666;6.634;2023-06-22T05:13:56;20.40;;;17.23;;
12958;SDS011;6544;51.666;6.634;2023-06-22T05:16:23;19.00;;;16.88;;
12958;SDS011;6544;51.666;6.634;2023-06-22T05:18:53;20.73;;;18.00;;
12958;SDS011;6544;51.666;6.634;2023-06-22T05:21:21;20.75;;;17.60;;
12958;SDS011;6544;51.666;6.634;2023-06-22T05:23:49;19.13;;;16.98;;
12958;SDS011;6544;51.666;6.634;2023-06-22T05:26:16;18.75;;;16.85;;
12958;SDS011;6544;51.666;6.634;2023-06-22T05:28:45;20.25;;;17.92;;
12958;SDS011;6544;51.666;6.634;2023-06-22T05:31:12;21.08;;;18.38;;
12958;SDS011;6544;51.666;6.634;2023-06-22T05:33:40;20.45;;;18.15;;
12958;SDS011;6544;51.666;6.634;2023-06-22T05:36:07;19.92;;;17.83;;
12958;SDS011;6544;51.666;6.634;2023-06-22T05:38:35;19.23;;;17.27;;
12958;SDS011;6544;51.666;6.634;2023-06-22T05:41:01;20.17;;;17.52;;
12958;SDS011;6544;51.666;6.634;2023-06-22T05:43:28;20.85;;;18.30;;
12958;SDS011;6544;51.666;6.634;2023-06-22T05:45:57;20.15;;;17.65;;
12958;SDS011;6544;51.666;6.634;2023-06-22T05:48:24;20.83;;;18.63;;
12958;SDS011;6544;51.666;6.634;2023-06-22T05:50:51;20.35;;;18.17;;
12958;SDS011;6544;51.666;6.634;2023-06-22T05:53:19;19.05;;;17.15;;
12958;SDS011;6544;51.666;6.634;2023-06-22T05:55:46;19.05;;;17.05;;
12958;SDS011;6544;51.666;6.634;2023-06-22T05:58:13;19.88;;;17.73;;
12958;SDS011;6544;51.666;6.634;2023-06-22T06:00:40;21.55;;;18.42;;
12958;SDS011;6544;51.666;6.634;2023-06-22T06:03:09;21.60;;;19.35;;
12958;SDS011;6544;51.666;6.634;2023-06-22T06:05:37;20.48;;;18.38;;
12958;SDS011;6544;51.666;6.634;2023-06-22T06:08:05;19.55;;;17.55;;
12958;SDS011;6544;51.666;6.634;2023-06-22T06:10:32;18.40;;;16.35;;
12958;SDS011;6544;51.666;6.634;2023-06-22T06:13:00;20.38;;;17.08;;
12958;SDS011;6544;51.666;6.634;2023-06-22T06:15:29;20.02;;;17.17;;
12958;SDS011;6544;51.666;6.634;2023-06-22T06:17:57;19.48;;;17.48;;
12958;SDS011;6544;51.666;6.634;2023-06-22T06:20:25;20.15;;;18.05;;
12958;SDS011;6544;51.666;6.634;2023-06-22T06:22:54;19.65;;;17.55;;
12958;SDS011;6544;51.666;6.634;2023-06-22T06:25:21;19.55;;;16.98;;
12958;SDS011;6544;51.666;6.634;2023-06-22T06:27:48;21.08;;;16.30;;
12958;SDS011;6544;51.666;6.634;2023-06-22T06:30:16;18.42;;;16.40;;
12958;SDS011;6544;51.666;6.634;2023-06-22T06:32:44;18.30;;;16.25;;
12958;SDS011;6544;51.666;6.634;2023-06-22T06:35:12;17.83;;;15.93;;
12958;SDS011;6544;51.666;6.634;2023-06-22T06:37:42;18.42;;;16.58;;
12958;SDS011;6544;51.666;6.634;2023-06-22T06:40:10;18.60;;;16.58;;
12958;SDS011;6544;51.666;6.634;2023-06-22T06:42:39;18.40;;;15.77;;
12958;SDS011;6544;51.666;6.634;2023-06-22T06:45:07;17.90;;;15.00;;
12958;SDS011;6544;51.666;6.634;2023-06-22T06:47:34;17.55;;;15.50;;
12958;SDS011;6544;51.666;6.634;2023-06-22T06:50:02;16.73;;;14.88;;
12958;SDS011;6544;51.666;6.634;2023-06-22T06:52:29;17.48;;;15.60;;
12958;SDS011;6544;51.666;6.634;2023-06-22T06:54:57;17.60;;;14.95;;
12958;SDS011;6544;51.666;6.634;2023-06-22T06:57:24;19.10;;;15.38;;
12958;SDS011;6544;51.666;6.634;2023-06-22T06:59:53;17.08;;;14.70;;
12958;SDS011;6544;51.666;6.634;2023-06-22T07:02:21;18.73;;;14.35;;
12958;SDS011;6544;51.666;6.634;2023-06-22T07:04:48;16.45;;;14.75;;
12958;SDS011;6544;51.666;6.634;2023-06-22T07:07:15;15.95;;;14.35;;
12958;SDS011;6544;51.666;6.634;2023-06-22T07:09:42;16.05;;;14.45;;
12958;SDS011;6544;51.666;6.634;2023-06-22T07:12:10;16.48;;;14.27;;
12958;SDS011;6544;51.666;6.634;2023-06-22T07:14:37;18.15;;;14.45;;
12958;SDS011;6544;51.666;6.634;2023-06-22T07:17:04;17.58;;;14.60;;
12958;SDS011;6544;51.666;6.634;2023-06-22T07:19:32;16.30;;;14.35;;
12958;SDS011;6544;51.666;6.634;2023-06-22T07:21:59;18.67;;;14.90;;
12958;SDS011;6544;51.666;6.634;2023-06-22T07:24:27;15.23;;;13.63;;
12958;SDS011;6544;51.666;6.634;2023-06-22T07:26:53;17.60;;;14.18;;
12958;SDS011;6544;51.666;6.634;2023-06-22T07:29:24;18.17;;;14.32;;
12958;SDS011;6544;51.666;6.634;2023-06-22T07:31:51;16.48;;;14.00;;
12958;SDS011;6544;51.666;6.634;2023-06-22T07:34:21;15.82;;;14.23;;
12958;SDS011;6544;51.666;6.634;2023-06-22T07:36:48;17.92;;;15.10;;
12958;SDS011;6544;51.666;6.634;2023-06-22T07:39:15;16.75;;;14.82;;
12958;SDS011;6544;51.666;6.634;2023-06-22T07:41:42;15.57;;;13.98;;
12958;SDS011;6544;51.666;6.634;2023-06-22T07:44:08;17.38;;;15.57;;
12958;SDS011;6544;51.666;6.634;2023-06-22T07:46:37;17.15;;;15.13;;
12958;SDS011;6544;51.666;6.634;2023-06-22T07:49:04;19.00;;;15.13;;
12958;SDS011;6544;51.666;6.634;2023-06-22T07:51:33;17.30;;;15.50;;
12958;SDS011;6544;51.666;6.634;2023-06-22T07:54:00;16.70;;;14.93;;
12958;SDS011;6544;51.666;6.634;2023-06-22T07:56:26;19.13;;;15.27;;
12958;SDS011;6544;51.666;6.634;2023-06-22T07:58:53;18.20;;;15.25;;
12958;SDS011;6544;51.666;6.634;2023-06-22T08:01:23;17.42;;;14.95;;
12958;SDS011;6544;51.666;6.634;2023-06-22T08:03:51;16.15;;;14.45;;
12958;SDS011;6544;51.666;6.634;2023-06-22T08:06:18;16.75;;;14.90;;
12958;SDS011;6544;51.666;6.634;2023-06-22T08:08:45;16.92;;;15.07;;
12958;SDS011;6544;51.666;6.634;2023-06-22T08:11:13;17.25;;;15.45;;
12958;SDS011;6544;51.666;6.634;2023-06-22T08:13:40;17.20;;;15.43;;
12958;SDS011;6544;51.666;6.634;2023-06-22T08:16:07;17.60;;;15.80;;
12958;SDS011;6544;51.666;6.634;2023-06-22T08:18:34;18.90;;;16.70;;
12958;SDS011;6544;51.666;6.634;2023-06-22T08:21:02;18.27;;;16.25;;
12958;SDS011;6544;51.666;6.634;2023-06-22T08:23:29;18.50;;;14.32;;
12958;SDS011;6544;51.666;6.634;2023-06-22T08:25:56;16.58;;;14.18;;
12958;SDS011;6544;51.666;6.634;2023-06-22T08:28:23;16.52;;;14.82;;
12958;SDS011;6544;51.666;6.634;2023-06-22T08:30:50;16.75;;;14.70;;
12958;SDS011;6544;51.666;6.634;2023-06-22T08:33:17;16.67;;;14.93;;
12958;SDS011;6544;51.666;6.634;2023-06-22T08:35:43;17.98;;;13.95;;
12958;SDS011;6544;51.666;6.634;2023-06-22T08:38:13;16.70;;;14.90;;
12958;SDS011;6544;51.666;6.634;2023-06-22T08:40:40;16.70;;;14.82;;
12958;SDS011;6544;51.666;6.634;2023-06-22T08:43:08;20.42;;;15.05;;
12958;SDS011;6544;51.666;6.634;2023-06-22T08:45:34;17.85;;;14.63;;
12958;SDS011;6544;51.666;6.634;2023-06-22T08:48:01;16.05;;;14.35;;
12958;SDS011;6544;51.666;6.634;2023-06-22T08:50:31;16.33;;;14.73;;
12958;SDS011;6544;51.666;6.634;2023-06-22T08:52:58;16.70;;;14.02;;
12958;SDS011;6544;51.666;6.634;2023-06-22T08:55:26;17.27;;;14.15;;
12958;SDS011;6544;51.666;6.634;2023-06-22T08:57:53;16.33;;;14.50;;
12958;SDS011;6544;51.666;6.634;2023-06-22T09:00:20;16.85;;;14.63;;
12958;SDS011;6544;51.666;6.634;2023-06-22T09:02:47;15.80;;;14.27;;
12958;SDS011;6544;51.666;6.634;2023-06-22T09:05:15;18.02;;;14.50;;
12958;SDS011;6544;51.666;6.634;2023-06-22T09:07:42;15.35;;;13.77;;
12958;SDS011;6544;51.666;6.634;2023-06-22T09:10:09;18.58;;;14.68;;
12958;SDS011;6544;51.666;6.634;2023-06-22T09:12:38;16.17;;;14.50;;
12958;SDS011;6544;51.666;6.634;2023-06-22T09:15:06;17.85;;;14.43;;
12958;SDS011;6544;51.666;6.634;2023-06-22T09:17:33;15.82;;;14.20;;
12958;SDS011;6544;51.666;6.634;2023-06-22T09:20:02;16.75;;;14.85;;
12958;SDS011;6544;51.666;6.634;2023-06-22T09:22:30;18.88;;;14.68;;
12958;SDS011;6544;51.666;6.634;2023-06-22T09:24:58;18.58;;;15.20;;
12958;SDS011;6544;51.666;6.634;2023-06-22T09:27:25;20.27;;;15.20;;
12958;SDS011;6544;51.666;6.634;2023-06-22T09:29:54;17.67;;;15.23;;
12958;SDS011;6544;51.666;6.634;2023-06-22T09:32:23;15.60;;;13.93;;
12958;SDS011;6544;51.666;6.634;2023-06-22T09:34:50;17.40;;;14.70;;
12958;SDS011;6544;51.666;6.634;2023-06-22T09:37:18;17.75;;;15.93;;
12958;SDS011;6544;51.666;6.634;2023-06-22T09:39:45;17.05;;;15.25;;
12958;SDS011;6544;51.666;6.634;2023-06-22T09:42:11;16.20;;;14.52;;
12958;SDS011;6544;51.666;6.634;2023-06-22T09:44:39;19.08;;;14.75;;
12958;SDS011;6544;51.666;6.634;2023-06-22T09:47:07;17.85;;;15.05;;
12958;SDS011;6544;51.666;6.634;2023-06-22T09:49:34;16.40;;;14.57;;
12958;SDS011;6544;51.666;6.634;2023-06-22T09:52:01;19.42;;;15.10;;
12958;SDS011;6544;51.666;6.634;2023-06-22T09:54:28;17.67;;;15.30;;
12958;SDS011;6544;51.666;6.634;2023-06-22T09:56:55;16.60;;;14.80;;
12958;SDS011;6544;51.666;6.634;2023-06-22T09:59:22;16.75;;;15.05;;
12958;SDS011;6544;51.666;6.634;2023-06-22T10:01:49;16.95;;;15.25;;
12958;SDS011;6544;51.666;6.634;2023-06-22T10:04:17;15.23;;;13.70;;
12958;SDS011;6544;51.666;6.634;2023-06-22T10:06:44;16.10;;;14.40;;
12958;SDS011;6544;51.666;6.634;2023-06-22T10:09:11;16.92;;;14.40;;
12958;SDS011;6544;51.666;6.634;2023-06-22T10:11:38;20.02;;;14.77;;
12958;SDS011;6544;51.666;6.634;2023-06-22T10:14:05;18.35;;;16.15;;
12958;SDS011;6544;51.666;6.634;2023-06-22T10:16:32;16.60;;;14.80;;
12958;SDS011;6544;51.666;6.634;2023-06-22T10:19:00;20.02;;;15.43;;
12958;SDS011;6544;51.666;6.634;2023-06-22T10:21:29;18.38;;;16.00;;
12958;SDS011;6544;51.666;6.634;2023-06-22T10:23:56;16.55;;;14.77;;
12958;SDS011;6544;51.666;6.634;2023-06-22T10:26:24;17.75;;;14.63;;
12958;SDS011;6544;51.666;6.634;2023-06-22T10:28:53;16.98;;;15.27;;
12958;SDS011;6544;51.666;6.634;2023-06-22T10:31:20;17.80;;;15.65;;
12958;SDS011;6544;51.666;6.634;2023-06-22T10:33:48;19.38;;;15.25;;
12958;SDS011;6544;51.666;6.634;2023-06-22T10:36:15;18.27;;;16.15;;
12958;SDS011;6544;51.666;6.634;2023-06-22T10:38:43;16.50;;;14.77;;
12958;SDS011;6544;51.666;6.634;2023-06-22T10:41:10;18.05;;;15.82;;
12958;SDS011;6544;51.666;6.634;2023-06-22T10:43:37;17.73;;;15.93;;
12958;SDS011;6544;51.666;6.634;2023-06-22T10:46:04;17.85;;;15.77;;
12958;SDS011;6544;51.666;6.634;2023-06-22T10:48:31;19.13;;;16.65;;
12958;SDS011;6544;51.666;6.634;2023-06-22T10:50:58;19.13;;;16.45;;
12958;SDS011;6544;51.666;6.634;2023-06-22T10:53:25;18.70;;;16.30;;
12958;SDS011;6544;51.666;6.634;2023-06-22T10:55:53;19.15;;;17.10;;
12958;SDS011;6544;51.666;6.634;2023-06-22T10:58:20;19.15;;;16.35;;
12958;SDS011;6544;51.666;6.634;2023-06-22T11:00:47;20.40;;;16.15;;
12958;SDS011;6544;51.666;6.634;2023-06-22T11:03:14;21.33;;;17.23;;
12958;SDS011;6544;51.666;6.634;2023-06-22T11:05:41;18.65;;;16.50;;
12958;SDS011;6544;51.666;6.634;2023-06-22T11:08:08;23.42;;;17.20;;
12958;SDS011;6544;51.666;6.634;2023-06-22T11:10:34;22.85;;;16.27;;
12958;SDS011;6544;51.666;6.634;2023-06-22T11:13:03;18.80;;;16.60;;
12958;SDS011;6544;51.666;6.634;2023-06-22T11:15:30;19.98;;;16.50;;
12958;SDS011;6544;51.666;6.634;2023-06-22T11:17:57;19.27;;;16.63;;
12958;SDS011;6544;51.666;6.634;2023-06-22T11:20:24;18.05;;;15.80;;
12958;SDS011;6544;51.666;6.634;2023-06-22T11:22:51;17.45;;;15.75;;
12958;SDS011;6544;51.666;6.634;2023-06-22T11:25:18;18.20;;;16.30;;
12958;SDS011;6544;51.666;6.634;2023-06-22T11:27:45;19.52;;;15.85;;
12958;SDS011;6544;51.666;6.634;2023-06-22T11:30:13;18.40;;;16.40;;
12958;SDS011;6544;51.666;6.634;2023-06-22T11:32:41;17.85;;;15.95;;
12958;SDS011;6544;51.666;6.634;2023-06-22T11:35:08;20.90;;;15.98;;
12958;SDS011;6544;51.666;6.634;2023-06-22T11:37:35;17.77;;;15.85;;
12958;SDS011;6544;51.666;6.634;2023-06-22T11:40:02;19.55;;;16.63;;
12958;SDS011;6544;51.666;6.634;2023-06-22T11:42:33;21.88;;;16.38;;
12958;SDS011;6544;51.666;6.634;2023-06-22T11:45:00;18.35;;;16.48;;
12958;SDS011;6544;51.666;6.634;2023-06-22T11:47:31;17.35;;;15.65;;
12958;SDS011;6544;51.666;6.634;2023-06-22T11:49:58;18.25;;;16.45;;
12958;SDS011;6544;51.666;6.634;2023-06-22T11:52:24;19.42;;;16.75;;
12958;SDS011;6544;51.666;6.634;2023-06-22T11:54:52;20.05;;;17.08;;
12958;SDS011;6544;51.666;6.634;2023-06-22T11:57:19;18.40;;;16.48;;
12958;SDS011;6544;51.666;6.634;2023-06-22T11:59:46;20.35;;;17.83;;
12958;SDS011;6544;51.666;6.634;2023-06-22T12:02:13;19.42;;;17.50;;
12958;SDS011;6544;51.666;6.634;2023-06-22T12:04:41;19.58;;;17.33;;
12958;SDS011;6544;51.666;6.634;2023-06-22T12:07:08;23.52;;;18.58;;
12958;SDS011;6544;51.666;6.634;2023-06-22T12:09:35;19.90;;;17.20;;
12958;SDS011;6544;51.666;6.634;2023-06-22T12:12:03;25.58;;;18.77;;
12958;SDS011;6544;51.666;6.634;2023-06-22T12:14:30;28.45;;;19.23;;
12958;SDS011;6544;51.666;6.634;2023-06-22T12:16:57;25.85;;;20.00;;
12958;SDS011;6544;51.666;6.634;2023-06-22T12:19:24;23.92;;;21.30;;
12958;SDS011;6544;51.666;6.634;2023-06-22T12:21:52;23.25;;;20.55;;
12958;SDS011;6544;51.666;6.634;2023-06-22T12:24:19;25.90;;;21.50;;
12958;SDS011;6544;51.666;6.634;2023-06-22T12:26:46;26.20;;;22.73;;
12958;SDS011;6544;51.666;6.634;2023-06-22T12:29:13;26.73;;;22.70;;
12958;SDS011;6544;51.666;6.634;2023-06-22T12:31:40;26.30;;;22.40;;
12958;SDS011;6544;51.666;6.634;2023-06-22T12:34:07;25.00;;;22.23;;
12958;SDS011;6544;51.666;6.634;2023-06-22T12:36:34;23.90;;;21.40;;
12958;SDS011;6544;51.666;6.634;2023-06-22T12:39:02;24.42;;;21.50;;
12958;SDS011;6544;51.666;6.634;2023-06-22T12:41:29;24.30;;;21.67;;
12958;SDS011;6544;51.666;6.634;2023-06-22T12:43:56;28.52;;;23.15;;
12958;SDS011;6544;51.666;6.634;2023-06-22T12:46:23;27.42;;;22.80;;
12958;SDS011;6544;51.666;6.634;2023-06-22T12:48:50;26.88;;;23.02;;
12958;SDS011;6544;51.666;6.634;2023-06-22T12:51:20;27.08;;;23.55;;
12958;SDS011;6544;51.666;6.634;2023-06-22T12:53:48;26.67;;;23.75;;
12958;SDS011;6544;51.666;6.634;2023-06-22T12:56:16;27.83;;;24.67;;
12958;SDS011;6544;51.666;6.634;2023-06-22T12:58:43;26.85;;;23.95;;
12958;SDS011;6544;51.666;6.634;2023-06-22T13:01:10;28.35;;;24.90;;
12958;SDS011;6544;51.666;6.634;2023-06-22T13:03:37;28.02;;;25.08;;
12958;SDS011;6544;51.666;6.634;2023-06-22T13:06:04;27.55;;;24.48;;
12958;SDS011;6544;51.666;6.634;2023-06-22T13:08:31;28.40;;;24.65;;
12958;SDS011;6544;51.666;6.634;2023-06-22T13:10:58;28.20;;;25.20;;
12958;SDS011;6544;51.666;6.634;2023-06-22T13:13:26;28.83;;;25.27;;
12958;SDS011;6544;51.666;6.634;2023-06-22T13:15:53;26.55;;;23.77;;
12958;SDS011;6544;51.666;6.634;2023-06-22T13:18:20;26.90;;;23.40;;
12958;SDS011;6544;51.666;6.634;2023-06-22T13:20:47;26.27;;;23.58;;
12958;SDS011;6544;51.666;6.634;2023-06-22T13:23:14;25.95;;;23.17;;
12958;SDS011;6544;51.666;6.634;2023-06-22T13:25:41;25.58;;;22.63;;
12958;SDS011;6544;51.666;6.634;2023-06-22T13:28:07;25.85;;;23.05;;
12958;SDS011;6544;51.666;6.634;2023-06-22T13:30:37;25.65;;;22.25;;
12958;SDS011;6544;51.666;6.634;2023-06-22T13:33:04;24.23;;;21.67;;
12958;SDS011;6544;51.666;6.634;2023-06-22T13:35:31;25.35;;;22.65;;
12958;SDS011;6544;51.666;6.634;2023-06-22T13:37:58;26.10;;;22.50;;
12958;SDS011;6544;51.666;6.634;2023-06-22T13:40:25;26.10;;;23.30;;
12958;SDS011;6544;51.666;6.634;2023-06-22T13:42:52;25.20;;;22.67;;
12958;SDS011;6544;51.666;6.634;2023-06-22T13:45:19;24.23;;;21.67;;
12958;SDS011;6544;51.666;6.634;2023-06-22T13:47:47;27.80;;;22.85;;
12958;SDS011;6544;51.666;6.634;2023-06-22T13:50:14;27.20;;;22.85;;
12958;SDS011;6544;51.666;6.634;2023-06-22T13:52:41;24.77;;;21.83;;
12958;SDS011;6544;51.666;6.634;2023-06-22T13:55:08;24.58;;;21.98;;
12958;SDS011;6544;51.666;6.634;2023-06-22T13:57:36;24.45;;;21.77;;
12958;SDS011;6544;51.666;6.634;2023-06-22T14:00:03;24.48;;;22.08;;
12958;SDS011;6544;51.666;6.634;2023-06-22T14:02:31;24.77;;;22.02;;
12958;SDS011;6544;51.666;6.634;2023-06-22T14:05:01;24.88;;;21.67;;
12958;SDS011;6544;51.666;6.634;2023-06-22T14:07:28;26.65;;;22.25;;
12958;SDS011;6544;51.666;6.634;2023-06-22T14:09:56;25.45;;;21.67;;
12958;SDS011;6544;51.666;6.634;2023-06-22T14:12:24;24.83;;;22.23;;
12958;SDS011;6544;51.666;6.634;2023-06-22T14:14:51;24.98;;;22.00;;
12958;SDS011;6544;51.666;6.634;2023-06-22T14:17:18;26.20;;;21.92;;
12958;SDS011;6544;51.666;6.634;2023-06-22T14:19:48;27.67;;;22.55;;
12958;SDS011;6544;51.666;6.634;2023-06-22T14:22:18;22.98;;;20.60;;
12958;SDS011;6544;51.666;6.634;2023-06-22T14:24:45;24.95;;;21.05;;
12958;SDS011;6544;51.666;6.634;2023-06-22T14:27:13;23.65;;;21.15;;
12958;SDS011;6544;51.666;6.634;2023-06-22T14:29:41;23.92;;;21.42;;
12958;SDS011;6544;51.666;6.634;2023-06-22T14:32:08;22.35;;;20.05;;
12958;SDS011;6544;51.666;6.634;2023-06-22T14:34:35;22.88;;;20.17;;
12958;SDS011;6544;51.666;6.634;2023-06-22T14:37:04;24.70;;;19.67;;